createdAt,value
2018-03-25T00:00:21.555Z,100546.38
2018-03-25T00:03:24.878Z,100548.36
2018-03-25T00:06:28.178Z,100544.42
2018-03-25T00:09:31.510Z,100547.72
2018-03-25T00:12:34.833Z,100553.75
2018-03-25T00:15:38.164Z,100555.44
2018-03-25T00:18:41.495Z,100555.52
2018-03-25T00:21:44.819Z,100551.88
2018-03-25T00:24:48.135Z,100552.09
2018-03-25T00:27:51.459Z,100543.69
2018-03-25T00:30:55.552Z,100545.55
2018-03-25T00:33:58.855Z,100545.45
2018-03-25T00:37:02.200Z,100550.84
2018-03-25T00:40:05.509Z,100546.89
2018-03-25T00:43:08.827Z,100551.77
2018-03-25T00:46:12.171Z,100551.47
2018-03-25T00:49:16.238Z,100550.30
2018-03-25T00:52:19.558Z,100545.52
2018-03-25T00:55:22.863Z,100552.27
2018-03-25T00:58:26.950Z,100547.92
2018-03-25T01:01:30.250Z,100546.66
2018-03-25T01:04:33.568Z,100546.36
2018-03-25T01:07:36.890Z,100544.70
2018-03-25T01:10:40.971Z,100546.36
2018-03-25T01:13:44.281Z,100544.99
2018-03-25T01:16:48.376Z,100546.85
2018-03-25T01:19:51.699Z,100549.97
2018-03-25T01:22:55.798Z,100553.21
2018-03-25T01:25:59.115Z,100552.25
2018-03-25T01:29:02.451Z,100558.81
2018-03-25T01:32:05.767Z,100556.42
2018-03-25T01:35:09.107Z,100553.52
2018-03-25T01:38:13.187Z,100554.86
2018-03-25T01:41:16.521Z,100559.42
2018-03-25T01:44:19.847Z,100557.87
2018-03-25T01:47:23.155Z,100560.06
2018-03-25T01:50:26.470Z,100559.62
2018-03-25T01:53:29.770Z,100557.55
2018-03-25T01:56:33.098Z,100556.31
2018-03-25T01:59:36.426Z,100555.05
2018-03-25T02:02:39.731Z,100556.52
2018-03-25T02:05:43.047Z,100555.37
2018-03-25T02:08:46.378Z,100556.72
2018-03-25T02:11:50.447Z,100560.86
2018-03-25T02:14:53.781Z,100552.66
2018-03-25T02:17:57.855Z,100552.33
2018-03-25T02:21:01.174Z,100555.95
2018-03-25T02:24:04.494Z,100556.49
2018-03-25T02:27:08.586Z,100564.89
2018-03-25T02:30:11.896Z,100559.28
2018-03-25T02:33:15.991Z,100557.83
2018-03-25T02:36:19.316Z,100557.61
2018-03-25T02:39:23.418Z,100561.97
2018-03-25T02:42:26.736Z,100558.34
2018-03-25T02:45:30.816Z,100559.38
2018-03-25T02:48:34.152Z,100560.44
2018-03-25T02:51:38.225Z,100556.77
2018-03-25T02:54:41.546Z,100555.84
2018-03-25T02:57:45.639Z,100559.38
2018-03-25T03:00:48.947Z,100569.77
2018-03-25T03:03:52.268Z,100571.95
2018-03-25T03:06:55.590Z,100572.25
2018-03-25T03:09:58.894Z,100584.09
2018-03-25T03:13:02.236Z,100586.46
2018-03-25T03:16:05.543Z,100589.28
2018-03-25T03:19:09.638Z,100596.95
2018-03-25T03:22:12.944Z,100599.34
2018-03-25T03:25:16.273Z,100600.48
2018-03-25T03:28:19.574Z,100591.03
2018-03-25T03:31:22.902Z,100591.54
2018-03-25T03:34:26.222Z,100594.66
2018-03-25T03:37:29.524Z,100586.56
2018-03-25T03:40:32.859Z,100585.64
2018-03-25T03:43:36.172Z,100592.80
2018-03-25T03:46:39.511Z,100596.31
2018-03-25T03:49:42.818Z,100589.98
2018-03-25T03:52:46.902Z,100589.56
2018-03-25T03:55:50.232Z,100596.85
2018-03-25T03:58:54.323Z,100596.85
2018-03-25T04:01:57.626Z,100590.50
2018-03-25T04:05:00.951Z,100581.59
2018-03-25T04:08:05.026Z,100580.33
2018-03-25T04:11:08.348Z,100580.86
2018-03-25T04:14:12.411Z,100580.44
2018-03-25T04:17:15.737Z,100580.64
2018-03-25T04:20:19.050Z,100583.85
2018-03-25T04:23:22.374Z,100574.52
2018-03-25T04:26:25.690Z,100570.56
2018-03-25T04:29:28.993Z,100578.66
2018-03-25T04:32:32.314Z,100572.95
2018-03-25T04:35:35.654Z,100571.19
2018-03-25T04:38:39.726Z,100576.58
2018-03-25T04:41:43.043Z,100574.59
2018-03-25T04:44:46.343Z,100570.33
2018-03-25T04:47:49.667Z,100580.39
2018-03-25T04:50:52.982Z,100583.94
2018-03-25T04:53:56.310Z,100571.67
2018-03-25T04:56:59.638Z,100581.03
2018-03-25T05:00:03.702Z,100581.03
2018-03-25T05:03:07.655Z,100584.64
2018-03-25T05:06:10.971Z,100587.55
2018-03-25T05:09:15.078Z,100589.82
2018-03-25T05:12:18.387Z,100592.02
2018-03-25T05:15:21.713Z,100587.75
2018-03-25T05:18:25.011Z,100594.58
2018-03-25T05:21:28.334Z,100601.45
2018-03-25T05:24:31.663Z,100598.55
2018-03-25T05:27:34.967Z,100599.45
2018-03-25T05:30:38.300Z,100601.50
2018-03-25T05:33:41.610Z,100610.44
2018-03-25T05:36:44.973Z,100608.67
2018-03-25T05:39:48.279Z,100606.52
2018-03-25T05:42:51.594Z,100613.85
2018-03-25T05:45:54.894Z,100610.97
2018-03-25T05:48:58.238Z,100610.97
2018-03-25T05:52:02.314Z,100617.17
2018-03-25T05:55:05.634Z,100617.08
2018-03-25T05:58:09.703Z,100622.14
2018-03-25T06:01:13.024Z,100618.30
2018-03-25T06:04:16.330Z,100625.05
2018-03-25T06:07:19.646Z,100625.27
2018-03-25T06:10:23.734Z,100627.88
2018-03-25T06:13:27.063Z,100629.64
2018-03-25T06:16:31.130Z,100628.30
2018-03-25T06:19:34.447Z,100636.48
2018-03-25T06:22:37.767Z,100638.67
2018-03-25T06:25:41.099Z,100642.94
2018-03-25T06:28:44.407Z,100643.75
2018-03-25T06:31:47.723Z,100650.91
2018-03-25T06:34:51.018Z,100647.29
2018-03-25T06:37:54.334Z,100652.70
2018-03-25T06:40:58.415Z,100652.59
2018-03-25T06:44:01.792Z,100656.35
2018-03-25T06:47:05.059Z,100665.91
2018-03-25T06:50:09.155Z,100657.05
2018-03-25T06:53:12.476Z,100659.95
2018-03-25T06:56:15.774Z,100660.88
2018-03-25T06:59:19.118Z,100661.02
2018-03-25T07:02:22.426Z,100671.08
2018-03-25T07:05:25.771Z,100664.05
2018-03-25T07:08:29.095Z,100673.20
2018-03-25T07:11:32.427Z,100675.59
2018-03-25T07:14:35.742Z,100678.51
2018-03-25T07:17:39.833Z,100678.30
2018-03-25T07:20:43.165Z,100681.23
2018-03-25T07:23:46.499Z,100689.00
2018-03-25T07:26:49.831Z,100687.38
2018-03-25T07:29:53.171Z,100693.83
2018-03-25T07:32:56.480Z,100694.02
2018-03-25T07:35:59.807Z,100702.45
2018-03-25T07:39:03.124Z,100702.56
2018-03-25T07:42:07.216Z,100705.48
2018-03-25T07:45:10.534Z,100706.12
2018-03-25T07:48:13.865Z,100708.84
2018-03-25T07:51:17.184Z,100708.64
2018-03-25T07:54:20.502Z,100717.77
2018-03-25T07:57:23.832Z,100727.87
2018-03-25T08:00:27.920Z,100731.43
2018-03-25T08:03:31.223Z,100732.48
2018-03-25T08:06:34.545Z,100734.13
2018-03-25T08:09:38.623Z,100733.74
2018-03-25T08:12:41.940Z,100729.38
2018-03-25T08:15:45.242Z,100730.64
2018-03-25T08:18:49.322Z,100730.09
2018-03-25T08:21:52.622Z,100737.80
2018-03-25T08:24:55.943Z,100740.72
2018-03-25T08:27:59.359Z,100742.80
2018-03-25T08:31:02.628Z,100744.59
2018-03-25T08:34:05.947Z,100746.46
2018-03-25T08:37:10.010Z,100748.44
2018-03-25T08:40:13.354Z,100754.98
2018-03-25T08:43:17.382Z,100750.95
2018-03-25T08:46:20.682Z,100753.25
2018-03-25T08:49:25.759Z,100759.30
2018-03-25T08:52:29.112Z,100757.95
2018-03-25T08:55:32.455Z,100761.69
2018-03-25T08:58:35.763Z,100763.97
2018-03-25T09:01:39.122Z,100762.02
2018-03-25T09:04:42.426Z,100761.09
2018-03-25T09:07:45.879Z,100768.66
2018-03-25T09:10:49.942Z,100771.50
2018-03-25T09:13:53.270Z,100778.58
2018-03-25T09:16:56.573Z,100777.53
2018-03-25T09:19:59.895Z,100774.83
2018-03-25T09:23:04.987Z,100776.80
2018-03-25T09:26:08.393Z,100776.70
2018-03-25T09:29:11.707Z,100775.34
2018-03-25T09:32:15.148Z,100775.75
2018-03-25T09:35:18.671Z,100777.53
2018-03-25T09:38:22.819Z,100773.41
2018-03-25T09:41:26.915Z,100772.25
2018-03-25T09:44:30.231Z,100775.27
2018-03-25T09:47:33.531Z,100782.76
2018-03-25T09:50:36.856Z,100780.80
2018-03-25T09:53:40.171Z,100786.53
2018-03-25T09:56:43.475Z,100782.48
2018-03-25T09:59:46.799Z,100782.06
2018-03-25T10:02:50.119Z,100784.55
2018-03-25T10:05:53.419Z,100795.36
2018-03-25T10:08:57.504Z,100792.73
2018-03-25T10:12:00.827Z,100794.75
2018-03-25T10:15:04.903Z,100799.34
2018-03-25T10:18:08.230Z,100806.53
2018-03-25T10:21:11.529Z,100804.38
2018-03-25T10:24:14.865Z,100806.75
2018-03-25T10:27:19.015Z,100808.02
2018-03-25T10:30:22.349Z,100805.73
2018-03-25T10:33:26.430Z,100811.88
2018-03-25T10:36:29.727Z,100810.72
2018-03-25T10:39:33.039Z,100808.86
2018-03-25T10:42:36.406Z,100818.53
2018-03-25T10:45:39.736Z,100822.92
2018-03-25T10:48:43.045Z,100816.58
2018-03-25T10:51:47.132Z,100818.95
2018-03-25T10:54:50.432Z,100816.55
2018-03-25T10:57:53.764Z,100818.95
2018-03-25T11:00:57.867Z,100822.30
2018-03-25T11:04:01.928Z,100820.41
2018-03-25T11:07:05.280Z,100819.05
2018-03-25T11:10:08.595Z,100823.66
2018-03-25T11:13:11.954Z,100823.02
2018-03-25T11:16:16.047Z,100823.23
2018-03-25T11:19:19.379Z,100824.08
2018-03-25T11:22:22.682Z,100821.98
2018-03-25T11:25:26.770Z,100821.98
2018-03-25T11:28:30.253Z,100826.16
2018-03-25T11:31:33.612Z,100831.67
2018-03-25T11:34:36.951Z,100831.80
2018-03-25T11:37:40.261Z,100826.17
2018-03-25T11:40:43.600Z,100824.20
2018-03-25T11:43:46.937Z,100826.52
2018-03-25T11:46:50.293Z,100815.67
2018-03-25T11:49:53.628Z,100824.14
2018-03-25T11:52:56.970Z,100829.73
2018-03-25T11:56:01.089Z,100832.59
2018-03-25T11:59:06.971Z,100834.50
2018-03-25T12:02:10.295Z,100833.44
2018-03-25T12:05:13.635Z,100832.00
2018-03-25T12:08:17.748Z,100846.86
2018-03-25T12:11:21.836Z,100839.38
2018-03-25T12:14:25.196Z,100834.38
2018-03-25T12:17:28.569Z,100832.42
2018-03-25T12:20:31.988Z,100831.84
2018-03-25T12:23:35.290Z,100837.41
2018-03-25T12:26:38.594Z,100840.94
2018-03-25T12:29:41.927Z,100837.30
2018-03-25T12:32:45.236Z,100843.86
2018-03-25T12:35:48.565Z,100838.88
2018-03-25T12:38:51.875Z,100830.33
2018-03-25T12:41:55.187Z,100836.89
2018-03-25T12:44:58.491Z,100835.41
2018-03-25T12:48:01.840Z,100834.06
2018-03-25T12:51:05.123Z,100836.48
2018-03-25T12:54:09.222Z,100836.05
2018-03-25T12:57:12.538Z,100829.79
2018-03-25T13:00:16.643Z,100839.30
2018-03-25T13:03:19.959Z,100841.88
2018-03-25T13:06:24.049Z,100843.23
2018-03-25T13:09:27.387Z,100846.97
2018-03-25T13:12:30.699Z,100848.03
2018-03-25T13:15:34.030Z,100844.59
2018-03-25T13:18:37.350Z,100849.89
2018-03-25T13:21:40.731Z,100847.52
2018-03-25T13:24:44.027Z,100840.32
2018-03-25T13:27:47.339Z,100843.23
2018-03-25T13:30:50.636Z,100843.12
2018-03-25T13:33:54.719Z,100840.50
2018-03-25T13:36:58.027Z,100842.19
2018-03-25T13:40:01.369Z,100840.63
2018-03-25T13:43:04.675Z,100843.00
2018-03-25T13:46:07.995Z,100844.23
2018-03-25T13:49:11.291Z,100846.42
2018-03-25T13:52:14.623Z,100846.30
2018-03-25T13:55:17.928Z,100843.71
2018-03-25T13:58:22.023Z,100837.23
2018-03-25T14:01:25.345Z,100832.95
2018-03-25T14:04:29.420Z,100839.73
2018-03-25T14:07:32.734Z,100831.83
2018-03-25T14:10:36.035Z,100838.42
2018-03-25T14:13:39.365Z,100834.02
2018-03-25T14:16:42.667Z,100833.17
2018-03-25T14:19:45.982Z,100830.67
2018-03-25T14:22:49.279Z,100828.72
2018-03-25T14:25:52.598Z,100825.68
2018-03-25T14:28:55.918Z,100826.52
2018-03-25T14:32:00.003Z,100830.08
2018-03-25T14:35:03.325Z,100830.68
2018-03-25T14:38:06.654Z,100828.60
2018-03-25T14:41:09.971Z,100833.80
2018-03-25T14:44:13.281Z,100830.37
2018-03-25T14:47:16.606Z,100832.03
2018-03-25T14:50:19.931Z,100833.29
2018-03-25T14:53:23.267Z,100829.09
2018-03-25T14:56:26.568Z,100836.60
2018-03-25T14:59:29.891Z,100839.73
2018-03-25T15:02:33.220Z,100834.10
2018-03-25T15:05:36.548Z,100834.95
2018-03-25T15:08:39.855Z,100832.16
2018-03-25T15:11:43.171Z,100833.09
2018-03-25T15:14:46.512Z,100827.37
2018-03-25T15:17:49.821Z,100838.08
2018-03-25T15:20:53.142Z,100843.50
2018-03-25T15:23:56.447Z,100841.30
2018-03-25T15:26:59.771Z,100843.20
2018-03-25T15:30:03.858Z,100837.45
2018-03-25T15:33:07.182Z,100835.29
2018-03-25T15:36:10.487Z,100836.52
2018-03-25T15:39:13.827Z,100833.42
2018-03-25T15:42:17.131Z,100838.63
2018-03-25T15:45:20.454Z,100839.88
2018-03-25T15:48:24.055Z,100833.64
2018-03-25T15:51:27.378Z,100837.80
2018-03-25T15:54:31.624Z,100839.57
2018-03-25T15:57:34.955Z,100841.05
2018-03-25T16:00:38.256Z,100840.84
2018-03-25T16:03:41.579Z,100840.41
2018-03-25T16:06:45.680Z,100842.61
2018-03-25T16:09:48.980Z,100846.16
2018-03-25T16:12:52.307Z,100845.31
2018-03-25T16:15:55.627Z,100846.88
2018-03-25T16:18:58.952Z,100844.05
2018-03-25T16:22:02.296Z,100844.81
2018-03-25T16:25:05.603Z,100845.53
2018-03-25T16:28:08.920Z,100845.44
2018-03-25T16:31:12.239Z,100847.92
2018-03-25T16:34:15.543Z,100857.28
2018-03-25T16:37:18.874Z,100858.42
2018-03-25T16:40:22.178Z,100860.83
2018-03-25T16:43:25.503Z,100863.53
2018-03-25T16:46:28.803Z,100863.22
2018-03-25T16:49:32.128Z,100866.05
2018-03-25T16:52:35.459Z,100869.05
2018-03-25T16:55:39.529Z,100866.63
2018-03-25T16:58:42.847Z,100868.39
2018-03-25T17:01:46.147Z,100869.30
2018-03-25T17:04:50.284Z,100868.03
2018-03-25T17:07:53.557Z,100863.05
2018-03-25T17:10:56.882Z,100874.37
2018-03-25T17:14:00.195Z,100878.13
2018-03-25T17:17:03.523Z,100879.68
2018-03-25T17:20:06.827Z,100881.03
2018-03-25T17:23:10.164Z,100884.23
2018-03-25T17:26:13.514Z,100886.92
2018-03-25T17:29:16.858Z,100892.34
2018-03-25T17:32:20.167Z,100885.34
2018-03-25T17:35:23.487Z,100889.31
2018-03-25T17:38:26.791Z,100886.06
2018-03-25T17:41:30.116Z,100890.73
2018-03-25T17:44:34.195Z,100891.69
2018-03-25T17:47:37.517Z,100897.30
2018-03-25T17:50:40.833Z,100895.12
2018-03-25T17:53:44.163Z,100903.02
2018-03-25T17:56:47.479Z,100908.91
2018-03-25T17:59:50.802Z,100912.75
2018-03-25T18:02:54.143Z,100906.91
2018-03-25T18:05:57.443Z,100911.48
2018-03-25T18:09:00.771Z,100913.45
2018-03-25T18:12:04.070Z,100917.70
2018-03-25T18:15:07.399Z,100913.31
2018-03-25T18:18:10.711Z,100915.59
2018-03-25T18:21:14.903Z,100926.39
2018-03-25T18:24:18.313Z,100928.56
2018-03-25T18:27:21.571Z,100936.98
2018-03-25T18:30:24.895Z,100937.27
2018-03-25T18:33:28.207Z,100934.57
2018-03-25T18:36:32.299Z,100931.42
2018-03-25T18:39:35.611Z,100938.13
2018-03-25T18:42:38.972Z,100935.83
2018-03-25T18:45:42.262Z,100934.28
2018-03-25T18:48:45.605Z,100945.47
2018-03-25T18:51:48.914Z,100937.56
2018-03-25T18:54:53.011Z,100948.28
2018-03-25T18:57:57.087Z,100948.14
2018-03-25T19:01:00.412Z,100946.15
2018-03-25T19:04:03.719Z,100946.15
2018-03-25T19:07:07.816Z,100948.52
2018-03-25T19:10:11.123Z,100949.75
2018-03-25T19:13:14.444Z,100945.25
2018-03-25T19:16:18.544Z,100949.70
2018-03-25T19:19:21.894Z,100950.59
2018-03-25T19:22:25.239Z,100948.66
2018-03-25T19:25:29.314Z,100949.56
2018-03-25T19:28:32.639Z,100953.39
2018-03-25T19:31:35.990Z,100951.08
2018-03-25T19:34:39.295Z,100961.63
2018-03-25T19:37:42.606Z,100962.41
2018-03-25T19:40:45.930Z,100974.03
2018-03-25T19:43:49.255Z,100967.02
2018-03-25T19:46:52.591Z,100974.30
2018-03-25T19:49:55.899Z,100962.85
2018-03-25T19:52:59.236Z,100960.66
2018-03-25T19:56:03.315Z,100971.42
2018-03-25T19:59:06.659Z,100968.80
2018-03-25T20:02:09.963Z,100966.38
2018-03-25T20:05:14.896Z,100964.45
2018-03-25T20:08:18.209Z,100962.84
2018-03-25T20:11:21.535Z,100968.91
2018-03-25T20:14:24.916Z,100969.91
2018-03-25T20:17:28.178Z,100965.59
2018-03-25T20:20:31.511Z,100967.12
2018-03-25T20:23:34.859Z,100974.99
2018-03-25T20:26:38.166Z,100972.45
2018-03-25T20:29:41.496Z,100977.89
2018-03-25T20:32:44.816Z,100975.80
2018-03-25T20:35:48.117Z,100976.34
2018-03-25T20:38:51.448Z,100976.07
2018-03-25T20:41:54.763Z,100975.91
2018-03-25T20:44:58.859Z,100980.88
2018-03-25T20:48:02.173Z,100981.61
2018-03-25T20:51:05.503Z,100983.34
2018-03-25T20:54:08.810Z,100980.88
2018-03-25T20:57:12.150Z,100987.45
2018-03-25T21:00:15.456Z,100993.52
2018-03-25T21:03:18.770Z,100990.65
2018-03-25T21:06:22.074Z,100990.26
2018-03-25T21:09:25.399Z,100996.19
2018-03-25T21:12:28.736Z,100996.30
2018-03-25T21:15:32.047Z,101001.44
2018-03-25T21:18:35.450Z,101003.55
2018-03-25T21:21:39.523Z,100997.56
2018-03-25T21:24:42.827Z,100995.19
2018-03-25T21:27:47.928Z,101004.49
2018-03-25T21:30:51.445Z,101002.30
2018-03-25T21:33:54.784Z,101007.08
2018-03-25T21:36:58.104Z,101004.14
2018-03-25T21:40:01.426Z,101002.36
2018-03-25T21:43:04.751Z,101005.23
2018-03-25T21:46:08.906Z,101011.55
2018-03-25T21:49:12.214Z,101010.33
2018-03-25T21:52:15.547Z,101017.49
2018-03-25T21:55:18.855Z,101022.97
2018-03-25T21:58:22.941Z,101024.19
2018-03-25T22:01:26.247Z,101022.60
2018-03-25T22:04:29.573Z,101014.59
2018-03-25T22:07:32.882Z,101019.84
2018-03-25T22:10:36.227Z,101021.86
2018-03-25T22:13:39.540Z,101029.41
2018-03-25T22:16:42.866Z,101025.55
2018-03-25T22:19:46.469Z,101031.96
2018-03-25T22:22:49.787Z,101029.64
2018-03-25T22:25:53.674Z,101033.86
2018-03-25T22:28:59.548Z,101038.31
2018-03-25T22:32:13.574Z,101047.05
2018-03-25T22:35:17.627Z,101039.81
2018-03-25T22:38:20.999Z,101046.73
2018-03-25T22:41:24.308Z,101045.30
2018-03-25T22:44:27.943Z,101042.96
2018-03-25T22:47:31.995Z,101035.67
2018-03-25T22:50:39.496Z,101034.75
2018-03-25T22:53:45.412Z,101034.40
2018-03-25T22:56:48.749Z,101043.45
2018-03-25T22:59:52.095Z,101035.92
2018-03-25T23:02:55.422Z,101039.88
2018-03-25T23:06:01.667Z,101033.98
2018-03-25T23:09:05.872Z,101042.64
2018-03-25T23:12:09.208Z,101039.56
2018-03-25T23:15:17.756Z,101038.78
2018-03-25T23:18:21.215Z,101044.73
2018-03-25T23:21:24.527Z,101042.67
2018-03-25T23:24:29.275Z,101043.80
2018-03-25T23:27:32.640Z,101044.20
2018-03-25T23:30:36.181Z,101042.43
2018-03-25T23:33:40.029Z,101050.30
2018-03-25T23:36:44.506Z,101048.05
2018-03-25T23:39:47.960Z,101051.28
2018-03-25T23:42:51.630Z,101055.98
2018-03-25T23:45:56.545Z,101054.91
2018-03-25T23:49:02.661Z,101069.00
2018-03-25T23:52:08.822Z,101065.26
2018-03-25T23:58:23.264Z,101071.41
